createdAt,value
2022-10-02T00:01:33.769Z,8.60
2022-10-02T00:04:05.164Z,9.60
2022-10-02T00:06:41.143Z,6.40
2022-10-02T00:09:24.585Z,9.80
2022-10-02T00:11:58.023Z,10.60
2022-10-02T00:14:33.518Z,9.60
2022-10-02T00:17:04.000Z,5.20
2022-10-02T00:19:34.153Z,7.80
2022-10-02T00:22:24.924Z,9.00
2022-10-02T00:25:00.496Z,8.00
2022-10-02T00:27:40.253Z,8.20
2022-10-02T00:30:13.849Z,9.40
2022-10-02T00:32:50.019Z,8.80
2022-10-02T00:35:37.989Z,9.00
2022-10-02T00:38:20.246Z,9.20
2022-10-02T00:41:11.351Z,10.80
2022-10-02T00:43:50.407Z,10.40
2022-10-02T00:46:38.809Z,9.00
2022-10-02T00:49:26.304Z,10.20
2022-10-02T00:52:10.143Z,8.40
2022-10-02T00:55:18.335Z,11.00
2022-10-02T00:58:02.324Z,15.20
2022-10-02T01:00:31.701Z,12.80
2022-10-02T01:03:16.782Z,13.00
2022-10-02T01:05:45.546Z,12.40
2022-10-02T01:08:15.607Z,13.60
2022-10-02T01:10:44.252Z,15.25
2022-10-02T01:13:13.547Z,15.80
2022-10-02T01:15:47.659Z,16.20
2022-10-02T01:18:16.437Z,15.20
2022-10-02T01:20:47.775Z,12.80
2022-10-02T01:23:26.074Z,14.20
2022-10-02T01:25:56.282Z,14.40
2022-10-02T01:28:25.090Z,15.00
2022-10-02T01:30:59.140Z,14.60
2022-10-02T01:33:27.892Z,11.60
2022-10-02T01:35:56.920Z,13.20
2022-10-02T01:38:25.791Z,13.60
2022-10-02T01:40:54.274Z,13.60
2022-10-02T01:43:29.690Z,13.00
2022-10-02T01:46:08.805Z,12.20
2022-10-02T01:48:43.745Z,14.20
2022-10-02T01:51:26.169Z,14.00
2022-10-02T01:54:06.344Z,13.60
2022-10-02T01:56:43.353Z,12.40
2022-10-02T01:59:24.501Z,15.60
2022-10-02T02:02:06.606Z,10.40
2022-10-02T02:04:44.717Z,13.80
2022-10-02T02:07:25.922Z,11.20
2022-10-02T02:10:01.419Z,12.00
2022-10-02T02:12:39.232Z,13.00
2022-10-02T02:15:15.043Z,13.00
2022-10-02T02:17:49.482Z,13.60
2022-10-02T02:20:22.164Z,15.20
2022-10-02T02:22:54.357Z,11.00
2022-10-02T02:25:28.587Z,10.20
2022-10-02T02:28:01.108Z,12.40
2022-10-02T02:30:33.874Z,12.40
2022-10-02T02:33:08.306Z,9.80
2022-10-02T02:35:40.558Z,12.20
2022-10-02T02:38:17.575Z,12.80
2022-10-02T02:40:48.010Z,8.40
2022-10-02T02:43:20.660Z,13.80
2022-10-02T02:45:55.999Z,12.00
2022-10-02T02:48:29.949Z,13.20
2022-10-02T02:51:04.562Z,12.80
2022-10-02T02:53:39.831Z,10.00
2022-10-02T02:56:14.346Z,10.20
2022-10-02T02:58:47.686Z,13.60
2022-10-02T03:01:17.507Z,12.00
2022-10-02T03:03:46.167Z,9.60
2022-10-02T03:06:31.662Z,11.20
2022-10-02T03:09:02.575Z,14.60
2022-10-02T03:11:43.388Z,10.40
2022-10-02T03:14:32.376Z,9.40
2022-10-02T03:17:14.655Z,9.00
2022-10-02T03:19:48.603Z,12.40
2022-10-02T03:22:25.836Z,12.00
2022-10-02T03:25:01.224Z,12.80
2022-10-02T03:27:36.495Z,15.60
2022-10-02T03:30:08.258Z,12.60
2022-10-02T03:32:40.566Z,10.80
2022-10-02T03:35:13.295Z,10.80
2022-10-02T03:37:46.448Z,16.00
2022-10-02T03:40:15.833Z,12.60
2022-10-02T03:42:44.318Z,12.60
2022-10-02T03:45:27.264Z,15.00
2022-10-02T03:48:02.741Z,14.40
2022-10-02T03:50:35.575Z,14.60
2022-10-02T03:53:14.292Z,15.20
2022-10-02T03:55:47.799Z,11.60
2022-10-02T03:58:18.347Z,15.00
2022-10-02T04:00:56.474Z,14.20
2022-10-02T04:03:31.994Z,13.40
2022-10-02T04:06:03.258Z,11.80
2022-10-02T04:08:37.262Z,12.80
2022-10-02T04:11:12.942Z,12.80
2022-10-02T04:13:48.458Z,12.60
2022-10-02T04:16:21.427Z,13.00
2022-10-02T04:18:58.205Z,10.20
2022-10-02T04:21:34.995Z,12.60
2022-10-02T04:24:13.660Z,15.40
2022-10-02T04:26:47.274Z,15.80
2022-10-02T04:29:23.957Z,16.00
2022-10-02T04:32:01.102Z,15.80
2022-10-02T04:34:31.160Z,16.60
2022-10-02T04:37:23.667Z,15.00
2022-10-02T04:40:07.250Z,15.80
2022-10-02T04:42:52.687Z,16.00
2022-10-02T04:45:42.690Z,14.20
2022-10-02T04:48:38.638Z,16.00
2022-10-02T04:51:21.851Z,19.00
2022-10-02T04:54:14.473Z,22.60
2022-10-02T04:56:58.183Z,38.25
2022-10-02T04:59:45.312Z,19.60
2022-10-02T05:02:31.199Z,13.40
2022-10-02T05:05:15.949Z,15.40
2022-10-02T05:08:13.303Z,14.20
2022-10-02T05:10:53.858Z,12.20
2022-10-02T05:13:36.748Z,10.00
2022-10-02T05:16:22.911Z,12.60
2022-10-02T05:19:06.213Z,10.00
2022-10-02T05:21:52.951Z,33.40
2022-10-02T05:24:41.807Z,11.60
2022-10-02T05:27:26.123Z,10.60
2022-10-02T05:30:06.760Z,9.80
2022-10-02T05:32:55.923Z,12.20
2022-10-02T05:35:54.975Z,15.00
2022-10-02T05:38:44.164Z,17.00
2022-10-02T05:41:20.758Z,10.80
2022-10-02T05:43:53.885Z,10.20
2022-10-02T05:46:25.810Z,12.40
2022-10-02T05:48:59.243Z,32.00
2022-10-02T05:51:39.296Z,32.40
2022-10-02T05:54:17.533Z,21.20
2022-10-02T05:56:55.800Z,13.80
2022-10-02T05:59:35.046Z,17.40
2022-10-02T06:02:12.448Z,28.00
2022-10-02T06:04:48.334Z,13.20
2022-10-02T06:07:19.171Z,10.80
2022-10-02T06:09:52.940Z,10.60
2022-10-02T06:12:30.578Z,11.00
2022-10-02T06:15:05.958Z,11.20
2022-10-02T06:17:42.179Z,12.00
2022-10-02T06:20:19.704Z,29.60
2022-10-02T06:22:53.287Z,16.80
2022-10-02T06:25:29.736Z,10.00
2022-10-02T06:28:07.754Z,12.40
2022-10-02T06:30:41.103Z,33.60
2022-10-02T06:33:16.806Z,20.20
2022-10-02T06:36:05.418Z,10.00
2022-10-02T06:38:51.473Z,8.00
2022-10-02T06:41:31.140Z,19.40
2022-10-02T06:44:17.042Z,16.20
2022-10-02T06:46:58.511Z,9.00
2022-10-02T06:49:53.742Z,8.20
2022-10-02T06:52:28.887Z,9.40
2022-10-02T06:55:10.812Z,8.00
2022-10-02T06:57:55.960Z,8.00
2022-10-02T07:00:26.563Z,5.80
2022-10-02T07:03:17.141Z,7.40
2022-10-02T07:06:00.331Z,7.40
2022-10-02T07:08:41.576Z,7.40
2022-10-02T07:11:16.986Z,8.00
2022-10-02T07:13:58.994Z,7.00
2022-10-02T07:16:42.872Z,5.20
2022-10-02T07:19:40.248Z,5.80
2022-10-02T07:22:43.956Z,6.80
2022-10-02T07:25:32.589Z,5.40
2022-10-02T07:28:13.326Z,3.40
2022-10-02T07:30:49.880Z,6.40
2022-10-02T07:33:31.675Z,7.20
2022-10-02T07:36:07.584Z,9.00
2022-10-02T07:39:06.793Z,5.60
2022-10-02T07:42:08.258Z,6.00
2022-10-02T07:45:20.576Z,6.40
2022-10-02T07:48:16.746Z,4.60
2022-10-02T07:51:02.238Z,5.00
2022-10-02T07:53:40.223Z,6.00
2022-10-02T07:56:20.025Z,6.00
2022-10-02T07:58:54.532Z,8.60
2022-10-02T08:01:28.381Z,27.40
2022-10-02T08:04:01.278Z,7.00
2022-10-02T08:06:34.276Z,6.80
2022-10-02T08:09:07.260Z,6.00
2022-10-02T08:11:44.121Z,0.00
2022-10-02T08:14:20.443Z,5.40
2022-10-02T08:16:51.838Z,6.60
2022-10-02T08:19:25.529Z,7.00
2022-10-02T08:22:01.754Z,5.60
2022-10-02T08:24:39.284Z,7.00
2022-10-02T08:27:14.098Z,6.20
2022-10-02T08:29:47.183Z,6.00
2022-10-02T08:32:16.055Z,7.40
2022-10-02T08:34:44.722Z,5.60
2022-10-02T08:37:32.497Z,7.00
2022-10-02T08:40:42.242Z,6.00
2022-10-02T08:43:39.130Z,5.00
2022-10-02T08:46:39.693Z,4.00
2022-10-02T08:49:56.659Z,5.00
2022-10-02T08:53:03.220Z,7.40
2022-10-02T08:55:58.985Z,6.80
2022-10-02T08:58:59.709Z,7.60
2022-10-02T09:02:09.340Z,11.00
2022-10-02T09:05:24.392Z,16.20
2022-10-02T09:08:28.739Z,6.80
2022-10-02T09:11:36.036Z,18.00
2022-10-02T09:17:46.342Z,5.40
2022-10-02T09:20:52.548Z,5.20
2022-10-02T09:23:57.694Z,6.00
2022-10-02T09:26:45.329Z,5.80
2022-10-02T09:29:56.174Z,5.80
2022-10-02T09:32:55.071Z,5.00
2022-10-02T09:36:03.909Z,4.00
2022-10-02T09:39:07.616Z,4.00
2022-10-02T09:42:06.335Z,5.80
2022-10-02T09:45:22.505Z,5.60
2022-10-02T09:48:48.004Z,6.20
2022-10-02T09:51:58.107Z,5.00
2022-10-02T09:55:18.526Z,3.00
2022-10-02T09:58:38.798Z,3.00
2022-10-02T10:01:51.418Z,2.00
2022-10-02T10:05:05.631Z,2.60
2022-10-02T10:08:08.164Z,3.00
2022-10-02T10:10:55.524Z,2.00
2022-10-02T10:13:55.915Z,1.00
2022-10-02T10:16:56.971Z,2.80
2022-10-02T10:19:55.006Z,2.00
2022-10-02T10:22:58.660Z,1.00
2022-10-02T10:25:53.470Z,1.00
2022-10-02T10:29:07.692Z,1.00
2022-10-02T10:32:20.254Z,1.00
2022-10-02T10:35:20.947Z,2.40
2022-10-02T10:38:13.985Z,1.00
2022-10-02T10:41:21.538Z,1.80
2022-10-02T10:44:20.095Z,1.00
2022-10-02T10:47:04.477Z,2.00
2022-10-02T10:49:57.596Z,1.80
2022-10-02T10:52:45.715Z,2.00
2022-10-02T10:55:19.716Z,1.80
2022-10-02T10:58:09.162Z,1.40
2022-10-02T11:00:54.175Z,1.20
2022-10-02T11:03:52.710Z,0.00
2022-10-02T11:06:35.740Z,1.20
2022-10-02T11:09:48.952Z,1.00
2022-10-02T11:12:41.252Z,1.00
2022-10-02T11:15:22.630Z,2.00
2022-10-02T11:18:19.725Z,4.00
2022-10-02T11:21:10.568Z,1.00
2022-10-02T11:24:14.767Z,2.20
2022-10-02T11:27:00.751Z,6.00
2022-10-02T11:30:00.061Z,1.80
2022-10-02T11:32:59.757Z,1.00
2022-10-02T11:35:44.508Z,0.00
2022-10-02T11:38:35.500Z,1.60
2022-10-02T11:41:20.821Z,0.00
2022-10-02T11:44:09.641Z,1.00
2022-10-02T11:46:58.062Z,1.00
2022-10-02T11:49:59.046Z,1.00
2022-10-02T11:52:52.285Z,1.00
2022-10-02T11:55:33.519Z,1.40
2022-10-02T11:58:15.432Z,1.20
2022-10-02T12:01:13.768Z,2.80
2022-10-02T12:03:54.147Z,1.20
2022-10-02T12:06:54.315Z,1.00
2022-10-02T12:09:37.528Z,1.00
2022-10-02T12:12:19.275Z,1.00
2022-10-02T12:14:59.040Z,1.00
2022-10-02T12:17:55.427Z,2.60
2022-10-02T13:32:10.210Z,1.60
2022-10-02T13:34:54.125Z,1.40
2022-10-02T13:37:34.997Z,40.25
2022-10-02T13:40:27.715Z,1.80
2022-10-02T13:43:40.908Z,15.80
2022-10-02T13:46:23.336Z,4.00
2022-10-02T13:49:07.269Z,2.00
2022-10-02T13:51:46.131Z,1.40
2022-10-02T13:54:51.251Z,0.80
2022-10-02T13:57:35.819Z,1.20
2022-10-02T14:00:11.404Z,2.80
2022-10-02T14:02:49.591Z,1.60
2022-10-02T14:05:34.113Z,1.00
2022-10-02T14:08:28.190Z,1.80
2022-10-02T14:11:08.606Z,1.20
2022-10-02T14:13:49.684Z,1.00
2022-10-02T14:16:43.445Z,1.40
2022-10-02T17:33:16.303Z,8.20
2022-10-02T17:35:52.615Z,7.40
2022-10-02T17:38:50.393Z,1.40
2022-10-02T17:41:29.420Z,6.40
2022-10-02T17:44:11.388Z,7.40
2022-10-02T17:47:00.202Z,6.60
2022-10-02T17:49:42.862Z,5.60
2022-10-02T17:52:41.421Z,5.20
2022-10-02T17:55:44.619Z,6.80
2022-10-02T17:58:22.662Z,21.20
2022-10-02T18:01:05.784Z,18.20
2022-10-02T18:03:49.374Z,7.40
2022-10-02T18:06:29.166Z,6.20
2022-10-02T18:09:14.670Z,5.80
2022-10-02T18:12:08.676Z,6.00
2022-10-02T18:15:03.561Z,8.40
2022-10-02T18:17:45.756Z,5.00
2022-10-02T18:20:24.734Z,8.20
2022-10-02T18:23:22.753Z,6.60
2022-10-02T18:26:06.374Z,7.40
2022-10-02T18:29:00.562Z,6.60
2022-10-02T18:31:55.956Z,5.60
2022-10-02T18:34:45.777Z,7.00
2022-10-02T18:37:28.853Z,4.80
2022-10-02T18:40:17.401Z,6.20
2022-10-02T18:43:03.107Z,7.60
2022-10-02T18:45:44.963Z,4.60
2022-10-02T18:48:31.900Z,5.60
2022-10-02T18:51:19.952Z,6.40
2022-10-02T18:54:01.551Z,8.00
2022-10-02T18:56:51.817Z,6.20
2022-10-02T18:59:34.356Z,8.80
2022-10-02T19:02:14.184Z,8.80
2022-10-02T19:05:00.896Z,8.60
2022-10-02T19:07:37.782Z,10.00
2022-10-02T19:10:27.209Z,8.80
2022-10-02T19:13:01.107Z,6.00
2022-10-02T19:15:32.701Z,9.00
2022-10-02T19:18:03.494Z,8.20
2022-10-02T19:20:44.722Z,7.40
2022-10-02T19:23:21.847Z,9.00
2022-10-02T19:25:52.543Z,7.00
2022-10-02T19:28:26.960Z,7.40
2022-10-02T19:30:59.752Z,6.00
2022-10-02T19:33:36.396Z,5.20
2022-10-02T19:36:06.825Z,5.20
2022-10-02T19:38:38.443Z,3.20
2022-10-02T19:41:11.016Z,4.00
2022-10-02T19:43:48.873Z,3.80
2022-10-02T19:46:19.994Z,4.00
2022-10-02T19:48:57.030Z,2.60
2022-10-02T19:51:26.251Z,4.00
2022-10-02T19:54:01.345Z,8.60
2022-10-02T19:56:35.822Z,10.40
2022-10-02T19:59:13.822Z,5.20
2022-10-02T20:01:45.234Z,3.60
2022-10-02T20:04:18.743Z,3.00
2022-10-02T20:06:52.423Z,3.40
2022-10-02T20:09:28.248Z,4.00
2022-10-02T20:12:02.652Z,5.00
2022-10-02T20:14:39.839Z,2.00
2022-10-02T20:17:10.307Z,4.00
2022-10-02T20:19:43.177Z,3.00
2022-10-02T20:22:24.127Z,3.20
2022-10-02T20:24:58.313Z,3.00
2022-10-02T20:27:37.418Z,2.60
2022-10-02T20:30:14.400Z,2.00
2022-10-02T20:32:48.433Z,2.20
2022-10-02T20:35:23.863Z,2.00
2022-10-02T20:37:56.348Z,3.80
2022-10-02T20:40:27.761Z,2.00
2022-10-02T20:43:02.008Z,2.80
2022-10-02T20:45:37.538Z,2.60
2022-10-02T20:49:06.913Z,2.80
2022-10-02T20:52:04.498Z,3.80
2022-10-02T20:54:54.197Z,1.60
2022-10-02T20:58:09.505Z,2.80
2022-10-02T21:00:59.337Z,4.40
2022-10-02T21:03:45.200Z,4.20
2022-10-02T21:06:40.679Z,3.00
2022-10-02T21:09:58.068Z,3.20
2022-10-02T21:12:59.422Z,3.60
2022-10-02T21:16:17.493Z,1.80
2022-10-02T21:19:06.305Z,8.60
2022-10-02T21:22:15.660Z,3.00
2022-10-02T21:25:20.251Z,3.60
2022-10-02T21:28:27.475Z,3.00
2022-10-02T21:31:11.759Z,3.20
2022-10-02T21:33:43.351Z,2.20
2022-10-02T21:36:22.553Z,2.80
2022-10-02T21:39:34.500Z,2.80
2022-10-02T21:42:21.525Z,2.00
2022-10-02T21:45:25.686Z,2.00
2022-10-02T21:48:56.830Z,2.00
2022-10-02T21:52:16.067Z,3.00
2022-10-02T21:55:20.174Z,2.20
2022-10-02T21:58:24.383Z,1.80
2022-10-02T22:01:16.370Z,1.00
2022-10-02T22:04:18.838Z,0.60
2022-10-02T22:06:59.121Z,2.00
2022-10-02T22:09:47.245Z,1.00
2022-10-02T22:12:39.739Z,1.00
2022-10-02T22:15:15.978Z,0.00
2022-10-02T22:17:57.058Z,2.00
2022-10-02T22:20:41.562Z,1.80
2022-10-02T22:23:28.453Z,1.20
2022-10-02T22:26:13.612Z,2.00
2022-10-02T22:28:46.660Z,2.00
2022-10-02T22:31:30.826Z,2.00
2022-10-02T22:34:18.099Z,2.20
2022-10-02T22:37:13.647Z,2.00
2022-10-02T22:39:50.157Z,2.40
2022-10-02T22:42:23.628Z,1.80
2022-10-02T22:44:55.877Z,2.00
2022-10-02T22:47:31.118Z,3.60
2022-10-02T22:50:05.225Z,4.00
2022-10-02T22:52:42.839Z,4.00
2022-10-02T22:55:20.044Z,2.80
2022-10-02T22:57:58.659Z,3.20
2022-10-02T23:00:35.090Z,3.00
2022-10-02T23:03:12.392Z,2.40
2022-10-02T23:05:45.208Z,3.00
2022-10-02T23:08:26.057Z,3.00
2022-10-02T23:11:01.183Z,2.00
2022-10-02T23:13:35.554Z,3.60
2022-10-02T23:16:09.403Z,2.00
2022-10-02T23:18:42.959Z,2.00
2022-10-02T23:21:29.437Z,1.80
2022-10-02T23:24:06.960Z,2.20
2022-10-02T23:26:43.070Z,2.80
2022-10-02T23:29:23.044Z,3.20
2022-10-02T23:31:57.956Z,5.80
2022-10-02T23:34:38.160Z,4.80
2022-10-02T23:37:17.090Z,5.20
2022-10-02T23:39:55.135Z,5.20
2022-10-02T23:42:34.581Z,3.00
2022-10-02T23:45:10.551Z,3.00
2022-10-02T23:47:54.749Z,4.00
2022-10-02T23:50:26.368Z,3.00
2022-10-02T23:53:22.711Z,4.00
2022-10-02T23:56:10.215Z,3.00
2022-10-02T23:58:55.468Z,3.00
